createdAt,value
2019-02-27T00:00:52.395Z,53.57
2019-02-27T00:04:55.790Z,42.20
2019-02-27T00:09:00.580Z,42.67
2019-02-27T00:13:04.247Z,47.63
2019-02-27T00:17:08.325Z,46.13
2019-02-27T00:21:11.794Z,53.93
2019-02-27T00:25:15.190Z,49.67
2019-02-27T00:29:18.605Z,46.67
2019-02-27T00:33:25.060Z,54.87
2019-02-27T00:37:27.160Z,46.30
2019-02-27T00:41:30.683Z,46.37
2019-02-27T00:45:34.089Z,43.03
2019-02-27T00:49:37.491Z,50.17
2019-02-27T00:53:40.943Z,52.30
2019-02-27T00:57:44.408Z,56.60
2019-02-27T01:01:48.025Z,59.50
2019-02-27T01:05:51.534Z,54.30
2019-02-27T01:09:55.001Z,50.97
2019-02-27T01:13:58.354Z,51.13
2019-02-27T01:18:01.762Z,56.37
2019-02-27T01:22:05.584Z,71.70
2019-02-27T01:26:08.988Z,54.83
2019-02-27T01:30:14.870Z,58.65
2019-02-27T01:34:18.263Z,50.17
2019-02-27T01:38:21.566Z,60.33
2019-02-27T01:42:24.881Z,60.73
2019-02-27T01:46:28.449Z,61.63
2019-02-27T01:50:33.447Z,50.27
2019-02-27T01:54:36.843Z,53.90
2019-02-27T01:58:43.307Z,53.97
2019-02-27T02:02:45.298Z,53.43
2019-02-27T02:06:48.712Z,49.77
2019-02-27T02:10:53.927Z,62.03
2019-02-27T02:15:21.949Z,64.07
2019-02-27T02:19:54.017Z,62.57
2019-02-27T02:23:59.793Z,51.18
2019-02-27T02:28:15.510Z,62.53
2019-02-27T02:32:34.254Z,49.73
2019-02-27T02:36:40.966Z,76.87
2019-02-27T02:40:56.435Z,69.27
2019-02-27T02:45:33.118Z,71.83
2019-02-27T02:50:17.461Z,74.57
2019-02-27T02:54:37.437Z,74.07
2019-02-27T02:58:57.166Z,69.83
2019-02-27T03:07:16.699Z,71.90
2019-02-27T03:11:29.127Z,71.07
2019-02-27T03:15:35.704Z,68.43
2019-02-27T03:19:44.950Z,70.50
2019-02-27T03:24:09.760Z,74.03
2019-02-27T03:28:28.441Z,71.20
2019-02-27T03:32:44.357Z,67.53
2019-02-27T03:37:17.843Z,70.57
2019-02-27T03:41:36.364Z,71.17
2019-02-27T03:45:45.712Z,68.80
2019-02-27T03:49:52.297Z,67.67
2019-02-27T03:54:20.930Z,73.67
2019-02-27T03:58:30.578Z,67.00
2019-02-27T04:02:53.262Z,68.35
2019-02-27T04:07:06.082Z,69.37
2019-02-27T04:11:09.526Z,77.13
2019-02-27T04:15:17.687Z,67.50
2019-02-27T04:19:18.157Z,68.40
2019-02-27T04:23:21.563Z,65.50
2019-02-27T04:27:24.969Z,60.93
2019-02-27T04:31:30.577Z,61.03
2019-02-27T04:35:34.311Z,59.53
2019-02-27T04:39:38.269Z,67.73
2019-02-27T04:43:42.187Z,60.87
2019-02-27T04:47:45.499Z,66.33
2019-02-27T04:51:50.606Z,59.10
2019-02-27T04:55:53.953Z,65.73
2019-02-27T04:59:57.269Z,67.43
2019-02-27T05:04:01.450Z,71.23
2019-02-27T05:08:05.507Z,75.32
2019-02-27T05:12:08.926Z,70.37
2019-02-27T05:16:14.265Z,73.33
2019-02-27T05:20:17.478Z,64.73
2019-02-27T05:24:20.887Z,72.20
2019-02-27T05:28:24.293Z,68.93
2019-02-27T05:32:28.294Z,66.20
2019-02-27T05:36:32.374Z,67.73
2019-02-27T05:40:35.873Z,65.03
2019-02-27T05:44:39.566Z,67.63
2019-02-27T05:48:42.976Z,69.63
2019-02-27T05:52:48.899Z,66.30
2019-02-27T05:56:51.539Z,63.93
2019-02-27T06:00:55.354Z,63.80
2019-02-27T06:04:59.057Z,73.80
2019-02-27T06:09:03.914Z,74.10
2019-02-27T06:13:07.318Z,69.13
2019-02-27T06:17:12.894Z,68.07
2019-02-27T06:21:16.606Z,69.93
2019-02-27T06:25:23.327Z,70.63
2019-02-27T06:29:25.055Z,59.80
2019-02-27T06:33:28.370Z,51.93
2019-02-27T06:37:31.764Z,60.23
2019-02-27T06:41:35.133Z,58.87
2019-02-27T06:45:38.819Z,45.00
2019-02-27T06:49:42.196Z,51.28
2019-02-27T06:53:46.084Z,63.10
2019-02-27T06:57:49.527Z,50.30
2019-02-27T07:01:52.894Z,49.18
2019-02-27T07:05:56.752Z,52.25
2019-02-27T07:10:00.281Z,49.30
2019-02-27T07:14:03.713Z,49.80
2019-02-27T07:18:07.186Z,49.42
2019-02-27T07:22:12.650Z,56.07
2019-02-27T07:26:15.995Z,55.63
2019-02-27T07:30:23.630Z,46.77
2019-02-27T07:34:26.552Z,56.70
2019-02-27T07:38:30.014Z,58.63
2019-02-27T07:42:33.376Z,63.90
2019-02-27T07:46:36.886Z,63.78
2019-02-27T07:50:40.699Z,74.40
2019-02-27T07:54:44.124Z,68.90
2019-02-27T07:58:47.516Z,73.75
2019-02-27T08:02:50.822Z,68.47
2019-02-27T08:06:54.241Z,67.03
2019-02-27T08:10:57.649Z,63.52
2019-02-27T08:15:00.974Z,64.07
2019-02-27T08:19:04.370Z,65.42
2019-02-27T08:23:07.778Z,60.92
2019-02-27T08:27:11.184Z,53.98
2019-02-27T08:31:14.594Z,60.33
2019-02-27T08:35:18.004Z,59.03
2019-02-27T08:39:21.417Z,64.53
2019-02-27T08:43:24.821Z,62.20
2019-02-27T08:47:28.227Z,58.70
2019-02-27T08:51:31.636Z,61.45
2019-02-27T08:55:38.997Z,63.40
2019-02-27T08:59:40.771Z,44.83
2019-02-27T09:03:44.219Z,42.15
2019-02-27T09:07:47.628Z,42.83
2019-02-27T09:11:51.044Z,42.13
2019-02-27T09:15:54.445Z,40.92
2019-02-27T09:19:57.854Z,46.40
2019-02-27T09:24:01.267Z,45.45
2019-02-27T09:28:08.786Z,36.88
2019-02-27T09:32:11.657Z,30.95
2019-02-27T09:36:14.981Z,32.20
2019-02-27T09:40:26.987Z,30.25
2019-02-27T09:44:30.392Z,29.20
2019-02-27T09:48:34.103Z,29.32
2019-02-27T09:52:37.619Z,31.68
2019-02-27T09:56:41.028Z,29.40
2019-02-27T10:00:46.447Z,26.82
2019-02-27T10:04:49.891Z,33.25
2019-02-27T10:08:53.256Z,28.02
2019-02-27T10:12:56.618Z,29.57
2019-02-27T10:17:00.020Z,26.05
2019-02-27T10:21:03.429Z,36.58
2019-02-27T10:25:08.619Z,27.87
2019-02-27T10:29:13.442Z,22.48
2019-02-27T10:33:18.156Z,22.82
2019-02-27T10:37:21.636Z,24.57
2019-02-27T10:41:25.699Z,19.27
2019-02-27T10:45:29.304Z,21.25
2019-02-27T10:49:32.720Z,20.15
2019-02-27T10:53:36.435Z,18.27
2019-02-27T10:57:39.785Z,18.50
2019-02-27T11:01:43.250Z,18.35
2019-02-27T11:05:46.663Z,17.12
2019-02-27T11:09:50.070Z,17.27
2019-02-27T11:13:55.431Z,16.80
2019-02-27T11:18:04.183Z,16.52
2019-02-27T11:22:03.671Z,15.05
2019-02-27T11:26:07.084Z,18.48
2019-02-27T11:30:16.738Z,16.77
2019-02-27T11:34:20.153Z,17.37
2019-02-27T11:38:24.784Z,15.00
2019-02-27T11:42:31.797Z,16.67
2019-02-27T11:46:35.147Z,17.27
2019-02-27T11:50:39.106Z,13.62
2019-02-27T11:54:43.280Z,13.50
2019-02-27T11:58:47.463Z,11.70
2019-02-27T12:02:50.872Z,11.55
2019-02-27T12:06:54.283Z,10.60
2019-02-27T12:10:57.690Z,10.55
2019-02-27T12:15:01.099Z,8.50
2019-02-27T12:19:06.377Z,7.65
2019-02-27T12:23:10.083Z,8.98
2019-02-27T12:27:25.688Z,8.13
2019-02-27T12:31:19.656Z,7.25
2019-02-27T12:35:25.828Z,6.50
2019-02-27T12:39:29.236Z,7.00
2019-02-27T12:43:32.642Z,7.40
2019-02-27T12:47:37.622Z,6.13
2019-02-27T12:51:41.198Z,5.47
2019-02-27T12:55:44.716Z,7.05
2019-02-27T12:59:48.123Z,6.50
2019-02-27T13:03:51.537Z,7.20
2019-02-27T13:07:54.939Z,6.45
2019-02-27T13:11:58.391Z,5.55
2019-02-27T13:16:01.759Z,10.65
2019-02-27T13:20:12.521Z,6.55
2019-02-27T13:24:16.067Z,8.13
2019-02-27T13:28:19.562Z,8.90
2019-02-27T13:32:26.556Z,12.53
2019-02-27T13:36:28.535Z,11.05
2019-02-27T13:40:35.143Z,9.98
2019-02-27T13:44:38.834Z,11.43
2019-02-27T13:48:42.445Z,12.33
2019-02-27T13:52:49.902Z,10.18
2019-02-27T13:56:52.019Z,13.75
2019-02-27T14:00:55.439Z,11.53
2019-02-27T14:05:00.622Z,14.65
2019-02-27T14:09:07.059Z,14.38
2019-02-27T14:13:10.786Z,15.35
2019-02-27T14:17:14.247Z,13.18
2019-02-27T14:21:17.609Z,16.20
2019-02-27T14:25:33.069Z,14.35
2019-02-27T14:29:35.380Z,13.30
2019-02-27T14:33:38.793Z,12.63
2019-02-27T14:37:42.201Z,9.93
2019-02-27T14:41:48.221Z,13.85
2019-02-27T14:45:50.964Z,13.53
2019-02-27T14:49:54.617Z,10.93
2019-02-27T14:53:58.907Z,15.55
2019-02-27T14:58:02.315Z,12.65
2019-02-27T15:02:05.726Z,11.08
2019-02-27T15:06:09.133Z,10.10
2019-02-27T15:10:17.707Z,8.98
2019-02-27T15:14:21.282Z,9.63
2019-02-27T15:18:24.788Z,10.33
2019-02-27T15:22:28.196Z,8.27
2019-02-27T15:26:31.709Z,12.35
2019-02-27T15:30:37.288Z,13.35
2019-02-27T15:34:45.923Z,17.50
2019-02-27T15:38:50.121Z,17.27
2019-02-27T15:42:53.447Z,18.32
2019-02-27T15:46:57.325Z,19.30
2019-02-27T15:51:04.013Z,24.10
2019-02-27T15:55:09.314Z,21.85
2019-02-27T15:59:12.831Z,24.07
2019-02-27T16:03:16.229Z,21.05
2019-02-27T16:07:19.631Z,26.60
2019-02-27T16:11:23.039Z,23.12
2019-02-27T16:15:26.663Z,25.95
2019-02-27T16:19:33.817Z,23.80
2019-02-27T16:23:39.225Z,23.83
2019-02-27T16:27:46.433Z,23.83
2019-02-27T16:31:50.550Z,16.52
2019-02-27T16:35:56.975Z,14.38
2019-02-27T16:40:00.627Z,10.25
2019-02-27T16:44:04.044Z,11.93
2019-02-27T16:48:07.442Z,12.43
2019-02-27T16:52:10.875Z,13.98
2019-02-27T16:56:14.258Z,18.90
2019-02-27T17:00:21.341Z,22.15
2019-02-27T17:04:24.864Z,17.73
2019-02-27T17:08:28.424Z,22.93
2019-02-27T17:12:31.720Z,20.32
2019-02-27T17:16:38.335Z,21.40
2019-02-27T17:20:46.083Z,23.92
2019-02-27T17:24:47.033Z,24.87
2019-02-27T17:28:51.641Z,17.23
2019-02-27T17:32:55.591Z,17.42
2019-02-27T17:36:59.101Z,18.85
2019-02-27T17:41:02.540Z,16.90
2019-02-27T17:45:10.027Z,11.60
2019-02-27T17:49:14.447Z,15.90
2019-02-27T17:53:20.480Z,15.20
2019-02-27T17:57:25.031Z,15.55
2019-02-27T18:01:28.367Z,15.00
2019-02-27T18:05:31.817Z,20.82
2019-02-27T18:09:35.202Z,23.67
2019-02-27T18:13:39.158Z,23.98
2019-02-27T18:17:42.742Z,24.75
2019-02-27T18:21:46.262Z,22.42
2019-02-27T18:25:49.663Z,24.90
2019-02-27T18:29:53.100Z,26.33
2019-02-27T18:33:56.504Z,28.35
2019-02-27T18:37:59.930Z,33.63
2019-02-27T18:42:04.447Z,28.60
2019-02-27T18:46:07.837Z,28.10
2019-02-27T18:50:13.003Z,30.08
2019-02-27T18:54:16.393Z,34.25
2019-02-27T18:58:20.958Z,27.25
2019-02-27T19:02:25.054Z,30.73
2019-02-27T19:06:28.463Z,32.07
2019-02-27T19:10:32.021Z,30.27
2019-02-27T19:14:36.723Z,36.83
2019-02-27T19:18:41.145Z,33.88
2019-02-27T19:22:45.273Z,41.40
2019-02-27T19:26:49.516Z,43.08
2019-02-27T19:30:53.031Z,35.85
2019-02-27T19:34:56.422Z,35.00
2019-02-27T19:38:59.806Z,33.10
2019-02-27T19:43:04.506Z,38.90
2019-02-27T19:47:07.988Z,35.65
2019-02-27T19:51:11.492Z,35.78
2019-02-27T19:55:15.004Z,31.62
2019-02-27T19:59:24.639Z,35.73
2019-02-27T20:03:23.979Z,34.90
2019-02-27T20:07:27.424Z,33.40
2019-02-27T20:11:30.796Z,30.57
2019-02-27T20:15:34.300Z,31.37
2019-02-27T20:19:37.710Z,29.15
2019-02-27T20:23:41.223Z,32.28
2019-02-27T20:27:44.735Z,30.37
2019-02-27T20:31:48.244Z,34.88
2019-02-27T20:35:52.401Z,41.10
2019-02-27T20:39:59.168Z,33.08
2019-02-27T20:44:03.493Z,34.78
2019-02-27T20:48:07.718Z,31.35
2019-02-27T20:52:14.524Z,33.90
2019-02-27T20:56:16.383Z,31.68
2019-02-27T21:00:20.740Z,32.15
2019-02-27T21:04:24.120Z,31.82
2019-02-27T21:08:27.635Z,31.30
2019-02-27T21:12:31.041Z,28.70
2019-02-27T21:16:35.984Z,32.42
2019-02-27T21:20:39.405Z,31.62
2019-02-27T21:24:44.542Z,31.20
2019-02-27T21:28:57.888Z,37.13
2019-02-27T21:32:53.105Z,29.48
2019-02-27T21:36:56.510Z,33.75
2019-02-27T21:40:59.919Z,30.85
2019-02-27T21:45:04.603Z,31.68
2019-02-27T21:49:08.275Z,32.85
2019-02-27T21:53:11.682Z,29.60
2019-02-27T21:57:15.100Z,29.52
2019-02-27T22:01:19.246Z,27.90
2019-02-27T22:05:23.667Z,33.13
2019-02-27T22:09:27.068Z,25.43
2019-02-27T22:13:32.317Z,23.83
2019-02-27T22:17:36.667Z,26.07
2019-02-27T22:21:41.076Z,27.82
2019-02-27T22:25:44.483Z,28.38
2019-02-27T22:29:47.897Z,27.42
2019-02-27T22:33:53.106Z,22.07
2019-02-27T22:37:56.454Z,27.73
2019-02-27T22:41:59.864Z,27.73
2019-02-27T22:46:03.476Z,27.82
2019-02-27T22:50:09.879Z,23.05
2019-02-27T22:54:13.284Z,28.10
2019-02-27T22:58:16.900Z,24.57
2019-02-27T23:02:21.592Z,26.73
2019-02-27T23:06:25.748Z,28.87
2019-02-27T23:10:30.929Z,24.18
2019-02-27T23:14:34.305Z,25.92
2019-02-27T23:18:40.337Z,24.37
2019-02-27T23:22:42.860Z,28.20
2019-02-27T23:26:46.268Z,30.82
2019-02-27T23:30:49.677Z,32.33
2019-02-27T23:34:53.085Z,28.95
2019-02-27T23:38:56.492Z,27.00
2019-02-27T23:43:03.383Z,28.95
2019-02-27T23:47:05.053Z,28.27
2019-02-27T23:51:08.768Z,32.38
2019-02-27T23:55:12.178Z,31.75
2019-02-27T23:59:15.592Z,29.00
